createdAt,value
2023-05-15T00:01:34.037Z,100986.94
2023-05-15T00:04:37.976Z,100987.09
2023-05-15T00:07:41.929Z,100976.59
2023-05-15T00:10:54.106Z,100977.34
2023-05-15T00:14:03.121Z,100969.97
2023-05-15T00:17:06.133Z,100972.81
2023-05-15T00:20:11.431Z,100971.25
2023-05-15T00:23:14.032Z,100963.22
2023-05-15T00:26:16.631Z,100961.88
2023-05-15T00:29:19.256Z,100956.94
2023-05-15T00:32:21.959Z,100957.44
2023-05-15T00:35:26.292Z,100957.13
2023-05-15T00:38:29.010Z,100952.44
2023-05-15T00:41:33.044Z,100949.13
2023-05-15T00:44:37.047Z,100945.44
2023-05-15T00:47:41.380Z,100948.31
2023-05-15T00:50:45.680Z,100940.88
2023-05-15T00:53:48.515Z,100938.13
2023-05-15T00:56:52.510Z,100940.19
2023-05-15T00:59:57.727Z,100929.84
2023-05-15T01:03:00.650Z,100933.28
2023-05-15T01:06:05.113Z,100930.84
2023-05-15T01:09:08.690Z,100931.75
2023-05-15T01:12:15.781Z,100927.75
2023-05-15T01:15:18.554Z,100930.31
2023-05-15T01:18:21.525Z,100929.94
2023-05-15T01:21:46.835Z,100923.25
2023-05-15T01:25:28.576Z,100924.13
2023-05-15T01:28:39.239Z,100917.69
2023-05-15T01:31:45.072Z,100911.41
2023-05-15T01:34:58.374Z,100914.50
2023-05-15T01:38:09.632Z,100907.59
2023-05-15T01:41:22.211Z,100905.56
2023-05-15T01:44:29.787Z,100910.28
2023-05-15T01:47:37.873Z,100912.34
2023-05-15T01:50:41.900Z,100910.72
2023-05-15T01:53:46.464Z,100904.28
2023-05-15T01:56:49.353Z,100911.47
2023-05-15T01:59:54.585Z,100910.78
2023-05-15T02:02:58.697Z,100897.78
2023-05-15T02:06:02.592Z,100895.59
2023-05-15T02:09:05.818Z,100893.56
2023-05-15T02:12:09.346Z,100893.47
2023-05-15T02:15:14.366Z,100891.31
2023-05-15T02:18:17.243Z,100895.47
2023-05-15T02:21:19.827Z,100897.00
2023-05-15T02:24:22.426Z,100896.16
2023-05-15T02:27:28.903Z,100892.47
2023-05-15T02:30:39.496Z,100892.47
2023-05-15T02:33:51.775Z,100893.34
2023-05-15T02:36:58.942Z,100889.31
2023-05-15T02:40:02.736Z,100889.00
2023-05-15T02:43:06.467Z,100883.66
2023-05-15T02:46:11.634Z,100884.47
2023-05-15T02:49:15.175Z,100880.34
2023-05-15T02:52:17.989Z,100889.50
2023-05-15T02:55:20.930Z,100884.25
2023-05-15T02:58:23.535Z,100877.38
2023-05-15T03:01:27.526Z,100880.19
2023-05-15T03:04:30.327Z,100870.16
2023-05-15T03:07:33.003Z,100862.47
2023-05-15T03:10:35.576Z,100875.31
2023-05-15T03:13:38.147Z,100862.00
2023-05-15T03:16:42.942Z,100861.63
2023-05-15T03:19:45.694Z,100859.66
2023-05-15T03:22:48.304Z,100858.09
2023-05-15T03:25:50.912Z,100854.00
2023-05-15T03:28:53.482Z,100854.25
2023-05-15T03:31:57.559Z,100849.78
2023-05-15T03:35:00.835Z,100848.44
2023-05-15T03:38:03.538Z,100852.22
2023-05-15T03:41:06.157Z,100841.78
2023-05-15T03:44:08.770Z,100839.75
2023-05-15T03:47:12.688Z,100841.22
2023-05-15T03:50:15.448Z,100842.06
2023-05-15T03:53:18.054Z,100845.19
2023-05-15T03:56:21.266Z,100845.59
2023-05-15T03:59:23.870Z,100842.84
2023-05-15T04:02:28.202Z,100842.47
2023-05-15T04:05:30.872Z,100842.41
2023-05-15T04:08:33.524Z,100841.00
2023-05-15T04:11:36.673Z,100836.13
2023-05-15T04:14:39.278Z,100830.81
2023-05-15T04:17:43.283Z,100832.97
2023-05-15T04:20:45.939Z,100837.69
2023-05-15T04:23:48.552Z,100835.88
2023-05-15T04:26:51.209Z,100825.72
2023-05-15T04:29:53.822Z,100832.84
2023-05-15T04:32:57.925Z,100828.53
2023-05-15T04:36:00.679Z,100830.41
2023-05-15T04:39:03.374Z,100827.66
2023-05-15T04:42:06.659Z,100818.75
2023-05-15T04:45:10.268Z,100822.97
2023-05-15T04:48:14.228Z,100819.84
2023-05-15T04:51:16.881Z,100821.56
2023-05-15T04:54:19.538Z,100823.28
2023-05-15T04:57:22.461Z,100827.06
2023-05-15T05:00:25.245Z,100830.59
2023-05-15T05:03:29.319Z,100818.78
2023-05-15T05:06:31.996Z,100819.47
2023-05-15T05:09:35.174Z,100812.97
2023-05-15T05:12:37.772Z,100809.88
2023-05-15T05:15:40.418Z,100815.19
2023-05-15T05:18:44.448Z,100815.88
2023-05-15T05:21:47.076Z,100818.69
2023-05-15T05:24:49.673Z,100813.56
2023-05-15T05:27:52.338Z,100824.31
2023-05-15T05:30:54.960Z,100825.72
2023-05-15T05:33:58.882Z,100831.84
2023-05-15T05:37:01.528Z,100822.31
2023-05-15T05:40:06.572Z,100822.91
2023-05-15T05:43:09.222Z,100816.72
2023-05-15T05:46:11.909Z,100820.44
2023-05-15T05:49:15.861Z,100817.00
2023-05-15T05:52:18.428Z,100820.41
2023-05-15T05:55:21.094Z,100820.72
2023-05-15T05:58:26.097Z,100816.28
2023-05-15T06:01:29.128Z,100818.22
2023-05-15T06:04:34.181Z,100817.88
2023-05-15T06:07:37.078Z,100811.59
2023-05-15T06:10:39.923Z,100813.84
2023-05-15T06:13:43.388Z,100806.09
2023-05-15T06:16:46.054Z,100809.91
2023-05-15T06:19:50.020Z,100806.41
2023-05-15T06:22:52.612Z,100802.94
2023-05-15T06:25:55.363Z,100807.28
2023-05-15T06:28:57.960Z,100799.53
2023-05-15T06:32:00.544Z,100803.53
2023-05-15T06:35:04.855Z,100800.41
2023-05-15T06:38:07.465Z,100799.91
2023-05-15T06:41:10.120Z,100791.78
2023-05-15T06:44:12.704Z,100780.13
2023-05-15T06:47:15.305Z,100780.69
2023-05-15T06:50:19.245Z,100784.13
2023-05-15T06:53:21.943Z,100775.09
2023-05-15T06:56:25.599Z,100774.78
2023-05-15T06:59:28.315Z,100768.56
2023-05-15T07:02:31.029Z,100768.63
2023-05-15T07:05:34.967Z,100777.88
2023-05-15T07:08:37.576Z,100771.75
2023-05-15T07:11:42.118Z,100767.81
2023-05-15T07:14:44.748Z,100761.75
2023-05-15T07:17:47.389Z,100757.38
2023-05-15T07:20:51.325Z,100751.75
2023-05-15T07:23:53.927Z,100754.28
2023-05-15T07:26:58.800Z,100755.19
2023-05-15T07:30:03.373Z,100754.53
2023-05-15T07:33:06.112Z,100755.56
2023-05-15T07:36:10.533Z,100750.44
2023-05-15T07:39:13.257Z,100748.28
2023-05-15T07:42:16.018Z,100742.16
2023-05-15T07:45:18.681Z,100743.13
2023-05-15T07:48:21.662Z,100741.75
2023-05-15T07:51:25.627Z,100741.41
2023-05-15T07:54:30.000Z,100739.44
2023-05-15T07:57:32.796Z,100739.28
2023-05-15T08:00:35.406Z,100738.16
2023-05-15T08:03:38.041Z,100734.16
2023-05-15T08:06:42.775Z,100728.72
2023-05-15T08:09:47.087Z,100730.19
2023-05-15T08:12:50.580Z,100720.63
2023-05-15T08:15:53.209Z,100720.50
2023-05-15T08:19:01.048Z,100715.13
2023-05-15T08:22:05.347Z,100714.44
2023-05-15T08:25:09.109Z,100715.81
2023-05-15T08:28:11.834Z,100709.72
2023-05-15T08:31:14.550Z,100706.16
2023-05-15T08:34:17.166Z,100703.66
2023-05-15T08:37:21.153Z,100708.25
2023-05-15T08:40:38.484Z,100705.00
2023-05-15T08:43:43.929Z,100703.59
2023-05-15T08:46:48.454Z,100700.41
2023-05-15T08:50:00.524Z,100701.91
2023-05-15T08:53:05.253Z,100703.63
2023-05-15T08:56:08.168Z,100690.97
2023-05-15T08:59:11.332Z,100690.44
2023-05-15T09:02:14.145Z,100685.00
2023-05-15T09:05:16.751Z,100677.63
2023-05-15T09:08:23.612Z,100686.72
2023-05-15T09:11:27.891Z,100679.50
2023-05-15T09:14:30.648Z,100678.34
2023-05-15T09:17:33.317Z,100683.34
2023-05-15T09:20:37.634Z,100674.34
2023-05-15T09:23:41.669Z,100679.69
2023-05-15T09:26:44.453Z,100681.31
2023-05-15T09:29:47.507Z,100674.03
2023-05-15T09:32:51.596Z,100666.09
2023-05-15T09:35:54.210Z,100663.78
2023-05-15T09:39:01.979Z,100671.03
2023-05-15T09:42:08.425Z,100663.38
2023-05-15T09:45:18.739Z,100669.56
2023-05-15T09:48:22.033Z,100672.41
2023-05-15T09:51:24.950Z,100654.78
2023-05-15T09:54:29.949Z,100657.59
2023-05-15T09:57:32.790Z,100657.66
2023-05-15T10:00:35.777Z,100655.56
2023-05-15T10:03:38.416Z,100652.91
2023-05-15T10:06:43.422Z,100644.56
2023-05-15T10:09:47.523Z,100653.50
2023-05-15T10:12:52.147Z,100650.75
2023-05-15T10:15:56.205Z,100640.97
2023-05-15T10:18:59.719Z,100648.81
2023-05-15T10:22:03.185Z,100653.00
2023-05-15T10:25:14.313Z,100641.53
2023-05-15T10:43:54.859Z,100625.38
2023-05-15T10:46:57.609Z,100619.47
2023-05-15T10:50:00.476Z,100612.34
2023-05-15T10:53:03.162Z,100617.59
2023-05-15T10:56:06.485Z,100609.09
2023-05-15T10:59:12.342Z,100621.88
2023-05-15T11:02:23.165Z,100604.53
2023-05-15T11:05:26.541Z,100607.63
2023-05-15T11:08:29.733Z,100612.03
2023-05-15T11:12:06.614Z,100607.81
2023-05-15T11:15:23.160Z,100602.22
2023-05-15T11:18:26.776Z,100599.44
2023-05-15T11:21:33.270Z,100600.09
2023-05-15T11:24:50.853Z,100598.19
2023-05-15T11:27:56.269Z,100595.09
2023-05-15T11:31:07.157Z,100597.59
2023-05-15T11:34:09.841Z,100596.19
2023-05-15T11:37:18.435Z,100588.31
2023-05-15T11:40:23.499Z,100592.44
2023-05-15T11:43:27.458Z,100591.81
2023-05-15T11:46:33.990Z,100580.91
2023-05-15T11:49:36.639Z,100580.63
2023-05-15T11:52:40.085Z,100582.59
2023-05-15T11:55:44.121Z,100583.84
2023-05-15T11:58:49.757Z,100580.13
2023-05-15T12:01:53.850Z,100581.28
2023-05-15T12:04:56.465Z,100579.78
2023-05-15T12:07:59.417Z,100569.91
2023-05-15T12:11:02.886Z,100573.69
2023-05-15T12:14:05.562Z,100575.06
2023-05-15T12:17:09.539Z,100574.59
2023-05-15T12:20:15.936Z,100573.91
2023-05-15T12:23:21.607Z,100572.63
2023-05-15T12:26:26.346Z,100566.72
2023-05-15T12:29:29.550Z,100561.03
2023-05-15T12:32:36.019Z,100557.19
2023-05-15T12:35:43.884Z,100566.97
2023-05-15T12:38:46.553Z,100560.66
2023-05-15T12:41:49.933Z,100556.50
2023-05-15T12:44:53.217Z,100542.97
2023-05-15T12:47:59.704Z,100545.16
2023-05-15T12:51:07.133Z,100539.22
2023-05-15T12:54:19.083Z,100541.75
2023-05-15T12:57:22.124Z,100534.59
2023-05-15T13:00:25.460Z,100542.28
2023-05-15T13:03:30.529Z,100544.94
2023-05-15T13:06:44.965Z,100539.53
2023-05-15T13:10:03.286Z,100536.84
2023-05-15T13:13:06.007Z,100539.47
2023-05-15T13:16:18.916Z,100541.91
2023-05-15T13:19:22.916Z,100531.09
2023-05-15T13:22:26.672Z,100535.78
2023-05-15T13:25:32.120Z,100535.59
2023-05-15T13:28:35.419Z,100530.53
2023-05-15T13:31:38.086Z,100533.22
2023-05-15T13:34:42.030Z,100538.06
2023-05-15T13:37:44.722Z,100534.13
2023-05-15T13:40:47.312Z,100536.19
2023-05-15T13:43:49.984Z,100531.47
2023-05-15T13:46:52.677Z,100532.66
2023-05-15T13:49:56.640Z,100535.34
2023-05-15T13:52:59.260Z,100530.22
2023-05-15T13:56:01.986Z,100529.38
2023-05-15T13:59:04.621Z,100528.09
2023-05-15T14:02:07.282Z,100537.94
2023-05-15T14:05:12.244Z,100537.50
2023-05-15T14:08:15.716Z,100535.94
2023-05-15T14:11:18.320Z,100542.81
2023-05-15T14:14:21.000Z,100540.91
2023-05-15T14:17:23.673Z,100549.44
2023-05-15T14:20:27.861Z,100556.81
2023-05-15T14:23:30.711Z,100554.31
2023-05-15T14:26:33.381Z,100554.97
2023-05-15T14:29:36.125Z,100552.97
2023-05-15T14:32:38.854Z,100557.00
2023-05-15T14:35:42.806Z,100555.44
2023-05-15T14:38:47.822Z,100558.56
2023-05-15T14:41:50.480Z,100547.31
2023-05-15T14:44:53.058Z,100559.72
2023-05-15T14:47:55.834Z,100557.84
2023-05-15T14:51:01.053Z,100548.44
2023-05-15T14:54:04.897Z,100547.00
2023-05-15T14:57:07.993Z,100531.84
2023-05-15T15:00:13.266Z,100539.38
2023-05-15T15:03:16.034Z,100535.78
2023-05-15T15:06:20.069Z,100543.78
2023-05-15T15:09:22.671Z,100547.91
2023-05-15T15:12:26.181Z,100540.78
2023-05-15T15:15:29.006Z,100544.06
2023-05-15T15:18:31.762Z,100547.00
2023-05-15T15:21:36.823Z,100536.22
2023-05-15T15:24:39.425Z,100529.56
2023-05-15T15:27:42.036Z,100538.47
2023-05-15T15:30:44.607Z,100529.69
2023-05-15T15:33:47.181Z,100535.94
2023-05-15T15:36:51.331Z,100528.09
2023-05-15T15:39:54.147Z,100524.28
2023-05-15T15:42:56.819Z,100525.97
2023-05-15T15:45:59.448Z,100523.81
2023-05-15T15:49:03.755Z,100539.66
2023-05-15T15:52:08.546Z,100531.38
2023-05-15T15:55:11.288Z,100536.47
2023-05-15T15:58:13.903Z,100546.41
2023-05-15T16:01:16.629Z,100539.28
2023-05-15T16:04:19.257Z,100551.75
2023-05-15T16:07:23.172Z,100546.59
2023-05-15T16:10:25.832Z,100551.38
2023-05-15T16:13:28.438Z,100556.91
2023-05-15T16:16:31.469Z,100558.88
2023-05-15T16:19:34.950Z,100556.63
2023-05-15T16:22:41.443Z,100558.09
2023-05-15T16:25:45.244Z,100561.22
2023-05-15T16:28:47.848Z,100556.78
2023-05-15T16:31:50.945Z,100568.75
2023-05-15T16:34:53.586Z,100573.59
2023-05-15T16:37:57.537Z,100574.25
2023-05-15T16:41:00.098Z,100571.69
2023-05-15T16:44:03.248Z,100581.22
2023-05-15T16:47:06.226Z,100577.06
2023-05-15T16:50:09.535Z,100582.25
2023-05-15T16:53:14.873Z,100578.47
2023-05-15T16:56:17.504Z,100578.91
2023-05-15T16:59:20.089Z,100577.75
2023-05-15T17:02:22.850Z,100576.59
2023-05-15T17:05:25.534Z,100589.44
2023-05-15T17:08:29.545Z,100587.03
2023-05-15T17:11:32.152Z,100583.25
2023-05-15T17:14:34.744Z,100588.94
2023-05-15T17:17:37.389Z,100586.78
2023-05-15T17:20:40.043Z,100585.09
2023-05-15T17:23:43.965Z,100598.97
2023-05-15T17:26:46.593Z,100602.91
2023-05-15T17:29:49.429Z,100602.94
2023-05-15T17:32:52.530Z,100601.09
2023-05-15T17:35:55.162Z,100604.63
2023-05-15T17:38:59.365Z,100609.06
2023-05-15T17:42:03.044Z,100616.28
2023-05-15T17:45:06.376Z,100623.75
2023-05-15T17:48:09.090Z,100623.13
2023-05-15T17:51:11.768Z,100622.53
2023-05-15T17:54:15.744Z,100632.16
2023-05-15T17:57:18.363Z,100639.84
2023-05-15T18:00:21.324Z,100637.06
2023-05-15T18:03:24.389Z,100637.41
2023-05-15T18:06:28.145Z,100642.28
2023-05-15T18:09:32.142Z,100657.50
2023-05-15T18:12:35.195Z,100644.22
2023-05-15T18:15:37.944Z,100651.47
2023-05-15T18:18:40.650Z,100650.56
2023-05-15T18:21:43.578Z,100650.97
2023-05-15T18:24:47.669Z,100670.00
2023-05-15T18:27:50.594Z,100665.59
2023-05-15T18:30:53.382Z,100673.16
2023-05-15T18:33:55.993Z,100670.47
2023-05-15T18:36:59.292Z,100669.94
2023-05-15T18:40:03.329Z,100680.47
2023-05-15T18:43:06.280Z,100681.66
2023-05-15T18:46:08.851Z,100687.38
2023-05-15T18:49:11.487Z,100707.00
2023-05-15T18:52:14.116Z,100702.38
2023-05-15T18:55:19.228Z,100716.00
2023-05-15T18:58:21.906Z,100716.72
2023-05-15T19:01:24.560Z,100714.69
2023-05-15T19:04:27.176Z,100723.00
2023-05-15T19:07:29.859Z,100736.88
2023-05-15T19:10:33.779Z,100736.47
2023-05-15T19:13:36.568Z,100738.66
2023-05-15T19:16:39.164Z,100745.03
2023-05-15T19:19:41.853Z,100753.50
2023-05-15T19:22:44.470Z,100749.41
2023-05-15T19:25:48.452Z,100763.53
2023-05-15T19:28:52.703Z,100765.94
2023-05-15T19:31:55.381Z,100766.25
2023-05-15T19:34:58.033Z,100767.44
2023-05-15T19:38:00.615Z,100771.59
2023-05-15T19:41:04.740Z,100781.72
2023-05-15T19:44:08.185Z,100785.91
2023-05-15T19:47:10.769Z,100787.91
2023-05-15T19:50:13.881Z,100785.56
2023-05-15T19:53:16.505Z,100785.88
2023-05-15T19:56:21.427Z,100790.78
2023-05-15T19:59:24.019Z,100790.28
2023-05-15T20:02:26.656Z,100789.94
2023-05-15T20:05:29.437Z,100791.06
2023-05-15T20:08:32.126Z,100788.13
2023-05-15T20:11:36.088Z,100805.44
2023-05-15T20:14:38.684Z,100792.09
2023-05-15T20:17:41.451Z,100798.66
2023-05-15T20:20:44.695Z,100800.63
2023-05-15T20:23:49.053Z,100806.84
2023-05-15T20:26:53.019Z,100801.88
2023-05-15T20:29:55.601Z,100804.28
2023-05-15T20:32:58.268Z,100812.56
2023-05-15T20:36:00.944Z,100812.22
2023-05-15T20:39:07.067Z,100811.72
2023-05-15T20:42:11.116Z,100816.56
2023-05-15T20:45:13.802Z,100825.16
2023-05-15T20:48:16.403Z,100829.19
2023-05-15T20:51:19.034Z,100833.41
2023-05-15T20:54:21.618Z,100829.69
2023-05-15T20:57:25.637Z,100822.06
2023-05-15T21:00:28.463Z,100825.00
2023-05-15T21:03:31.400Z,100825.16
2023-05-15T21:06:34.160Z,100828.94
2023-05-15T21:09:36.853Z,100823.88
2023-05-15T21:12:40.885Z,100829.69
2023-05-15T21:15:43.499Z,100825.84
2023-05-15T21:18:46.205Z,100836.31
2023-05-15T21:21:48.893Z,100838.66
2023-05-15T21:24:51.559Z,100829.94
2023-05-15T21:27:55.588Z,100844.41
2023-05-15T21:30:58.349Z,100840.78
2023-05-15T21:34:00.986Z,100844.81
2023-05-15T21:37:03.699Z,100848.88
2023-05-15T21:40:07.144Z,100844.31
2023-05-15T21:43:11.500Z,100840.94
2023-05-15T21:46:14.136Z,100850.75
2023-05-15T21:49:16.762Z,100848.13
2023-05-15T21:52:19.362Z,100845.63
2023-05-15T21:55:21.956Z,100850.81
2023-05-15T21:58:25.931Z,100860.91
2023-05-15T22:01:28.644Z,100861.06
2023-05-15T22:04:31.323Z,100857.53
2023-05-15T22:07:33.905Z,100856.22
2023-05-15T22:10:36.653Z,100845.78
2023-05-15T22:13:40.743Z,100851.47
2023-05-15T22:16:43.365Z,100856.81
2023-05-15T22:19:46.216Z,100865.84
2023-05-15T22:22:48.911Z,100862.06
2023-05-15T22:25:51.486Z,100870.09
2023-05-15T22:28:56.566Z,100878.16
2023-05-15T22:31:59.248Z,100875.88
2023-05-15T22:35:02.140Z,100875.72
2023-05-15T22:38:06.860Z,100876.16
2023-05-15T22:41:09.724Z,100875.28
2023-05-15T22:44:13.857Z,100869.97
2023-05-15T22:47:16.506Z,100875.38
2023-05-15T22:50:19.126Z,100876.53
2023-05-15T22:53:21.744Z,100888.41
2023-05-15T22:56:24.314Z,100877.84
2023-05-15T22:59:28.339Z,100888.81
2023-05-15T23:02:31.003Z,100880.94
2023-05-15T23:05:33.700Z,100889.34
2023-05-15T23:08:36.314Z,100884.00
2023-05-15T23:11:39.164Z,100894.00
2023-05-15T23:14:43.101Z,100890.97
2023-05-15T23:17:45.920Z,100886.91
2023-05-15T23:20:48.552Z,100882.38
2023-05-15T23:23:51.517Z,100879.69
2023-05-15T23:26:54.096Z,100879.19
2023-05-15T23:29:58.077Z,100891.75
2023-05-15T23:33:00.838Z,100889.69
2023-05-15T23:36:03.566Z,100890.25
2023-05-15T23:39:06.166Z,100889.25
2023-05-15T23:42:09.934Z,100892.13
2023-05-15T23:45:14.992Z,100886.44
2023-05-15T23:48:17.842Z,100879.69
2023-05-15T23:51:21.119Z,100889.63
2023-05-15T23:54:23.727Z,100879.91
2023-05-15T23:57:26.518Z,100880.75
